Time;durP1;ratioP1;P1;durP2;ratioP2;P2;SDS_P1;SDS_P2;PMS_P1;PMS_P2;Temp;Humidity;BMP_temperature;BMP_pressure;BME280_temperature;BME280_humidity;BME280_pressure;Samples;Min_cycle;Max_cycle;Signal;HPM_P1;HPM_P2
2022/03/18 00:01:54;;;;;;;15.20;3.50;;;;;;;5.09;88.67;103638.72;10602561;27;20054;-63
2022/03/18 00:07:17;;;;;;;12.48;3.90;;;;;;;5.14;87.10;103643.03;10631648;27;20054;-62
2022/03/18 00:12:39;;;;;;;14.73;4.10;;;;;;;4.83;87.13;103651.53;10640480;27;20039;-63
2022/03/18 00:18:01;;;;;;;18.40;4.07;;;;;;;4.97;88.36;103660.22;10642211;27;20118;-62
2022/03/18 00:23:23;;;;;;;12.15;3.92;;;;;;;4.89;87.29;103658.47;10634957;27;20532;-63
2022/03/18 00:28:45;;;;;;;15.18;4.65;;;;;;;4.77;87.78;103663.56;10640477;27;20092;-63
2022/03/18 00:34:10;;;;;;;16.20;4.63;;;;;;;4.76;86.66;103665.31;10642520;27;20046;-63
2022/03/18 00:39:32;;;;;;;19.00;4.95;;;;;;;4.61;87.83;103661.78;10630738;27;20047;-63
2022/03/18 00:44:53;;;;;;;17.23;5.25;;;;;;;4.57;88.70;103667.81;10643207;27;20216;-63
2022/03/18 00:55:55;;;;;;;17.17;5.35;;;;;;;4.56;87.10;103672.94;10614448;27;20426;-63
2022/03/18 01:01:17;;;;;;;15.40;4.35;;;;;;;4.91;85.67;103678.31;10643453;27;20543;-63
2022/03/18 01:06:39;;;;;;;15.38;5.13;;;;;;;4.58;89.27;103684.16;10633863;27;20054;-63
2022/03/18 01:12:04;;;;;;;14.80;4.75;;;;;;;4.48;89.04;103697.88;10643659;27;20513;-62
2022/03/18 01:17:26;;;;;;;21.02;5.05;;;;;;;4.66;90.82;103698.84;10634258;27;20122;-63
2022/03/18 01:22:47;;;;;;;13.15;4.57;;;;;;;4.66;89.93;103701.41;10649158;27;20043;-63
2022/03/18 01:28:09;;;;;;;15.27;4.82;;;;;;;4.46;91.69;103704.75;10642758;27;20047;-63
2022/03/18 01:33:31;;;;;;;12.60;4.50;;;;;;;4.45;92.52;103714.19;10641670;27;20467;-63
2022/03/18 01:38:52;;;;;;;14.15;3.85;;;;;;;4.31;92.31;103714.97;10636979;27;20395;-62
2022/03/18 01:44:14;;;;;;;12.98;4.43;;;;;;;4.27;92.15;103716.69;10633692;27;20058;-63
2022/03/18 01:49:37;;;;;;;15.05;4.40;;;;;;;4.25;93.00;103730.41;10608804;27;20053;-63
2022/03/18 01:54:59;;;;;;;16.35;4.60;;;;;;;4.19;92.60;103731.22;10641402;27;20388;-63
2022/03/18 02:00:21;;;;;;;18.95;4.50;;;;;;;4.10;93.52;103741.47;10649532;27;20546;-63
2022/03/18 02:05:44;;;;;;;15.82;4.93;;;;;;;4.14;93.20;103739.78;10644770;27;20042;-63
2022/03/18 02:11:07;;;;;;;11.98;4.50;;;;;;;3.98;93.83;103735.34;10640139;27;20038;-63
2022/03/18 02:16:29;;;;;;;13.18;4.68;;;;;;;3.93;94.30;103734.44;10628893;27;20051;-63
2022/03/18 02:21:54;;;;;;;15.93;4.22;;;;;;;3.86;93.29;103730.94;10620867;27;20145;-63
2022/03/18 02:27:16;;;;;;;16.65;4.78;;;;;;;3.87;93.35;103742.13;10620366;27;20482;-63
2022/03/18 02:32:38;;;;;;;11.20;3.88;;;;;;;3.77;93.10;103742.91;10628247;27;20664;-63
2022/03/18 02:38:00;;;;;;;16.92;4.30;;;;;;;3.78;95.23;103739.47;10636005;27;20046;-61
2022/03/18 02:43:22;;;;;;;15.20;4.18;;;;;;;3.82;94.30;103746.38;10647974;27;20517;-63
2022/03/18 02:48:43;;;;;;;15.80;4.30;;;;;;;3.79;93.75;103748.91;10636650;27;20681;-63
2022/03/18 02:54:05;;;;;;;14.23;4.03;;;;;;;3.79;94.00;103754.06;10640713;27;20035;-63
2022/03/18 02:59:27;;;;;;;18.48;4.70;;;;;;;3.77;94.44;103755.81;10605838;27;20051;-62
2022/03/18 03:10:31;;;;;;;16.85;4.28;;;;;;;3.73;93.83;103759.19;10647141;27;20057;-63
2022/03/18 03:15:53;;;;;;;14.30;3.90;;;;;;;3.82;94.87;103759.25;10634636;27;20747;-63
2022/03/18 03:21:15;;;;;;;13.23;4.88;;;;;;;3.66;93.70;103765.13;10618872;27;20043;-63
2022/03/18 03:26:36;;;;;;;11.80;4.05;;;;;;;3.57;94.94;103767.59;10624418;27;20054;-63
2022/03/18 03:31:58;;;;;;;13.80;3.90;;;;;;;3.54;95.65;103772.72;10643777;27;20035;-63
2022/03/18 03:37:20;;;;;;;9.80;4.18;;;;;;;3.62;95.08;103775.38;10628667;27;20046;-63
2022/03/18 03:42:43;;;;;;;8.07;3.72;;;;;;;3.61;96.01;103787.44;10593940;27;20046;-62
2022/03/18 03:48:06;;;;;;;16.55;4.22;;;;;;;3.66;95.11;103798.63;10637430;27;20055;-62
2022/03/18 03:53:27;;;;;;;14.25;4.20;;;;;;;3.61;96.06;103797.75;10632498;27;20399;-63
2022/03/18 03:58:49;;;;;;;12.07;4.10;;;;;;;3.71;93.80;103802.16;10627186;27;20034;-63
2022/03/18 04:04:11;;;;;;;12.02;3.97;;;;;;;3.61;95.48;103800.31;10639734;27;20046;-63
2022/03/18 04:09:32;;;;;;;16.30;3.97;;;;;;;3.56;96.55;103801.97;10614915;27;20082;-63
2022/03/18 04:14:54;;;;;;;13.85;3.78;;;;;;;3.73;95.59;103810.78;10606146;27;20043;-63
2022/03/18 04:20:18;;;;;;;9.68;3.83;;;;;;;3.78;96.05;103829.75;10618282;27;20819;-63
2022/03/18 04:25:40;;;;;;;16.42;4.18;;;;;;;3.94;93.88;103829.03;10649498;27;20065;-63
2022/03/18 04:31:02;;;;;;;14.30;3.75;;;;;;;3.89;94.08;103843.63;10635359;27;20053;-63
2022/03/18 04:36:23;;;;;;;10.27;3.47;;;;;;;3.78;95.95;103840.06;10643981;27;20060;-63
2022/03/18 04:41:45;;;;;;;11.57;4.30;;;;;;;3.95;94.78;103846.25;10630995;27;20049;-63
2022/03/18 04:47:07;;;;;;;15.48;3.67;;;;;;;3.83;95.97;103856.44;10642934;27;20039;-63
2022/03/18 04:52:28;;;;;;;11.73;3.67;;;;;;;3.84;95.61;103871.97;10643935;27;20049;-63
2022/03/18 04:57:50;;;;;;;13.13;4.60;;;;;;;3.99;94.88;103876.41;10625844;27;20510;-63
2022/03/18 05:03:12;;;;;;;17.48;3.72;;;;;;;4.00;94.88;103879.00;10612366;27;20522;-63
2022/03/18 05:08:33;;;;;;;18.13;3.67;;;;;;;3.95;94.46;103880.69;10618460;27;20050;-63
2022/03/18 05:13:56;;;;;;;11.23;3.40;;;;;;;3.92;94.85;103896.13;10619217;27;20047;-63
2022/03/18 05:19:18;;;;;;;11.13;3.88;;;;;;;3.54;96.00;103905.97;10651995;27;20419;-63
2022/03/18 05:24:40;;;;;;;12.48;3.92;;;;;;;3.76;95.92;103914.00;10642738;27;20057;-63
2022/03/18 05:30:02;;;;;;;12.32;3.95;;;;;;;3.78;96.20;103917.47;10645447;27;20104;-63
2022/03/18 05:35:24;;;;;;;14.13;4.32;;;;;;;3.78;96.60;103935.53;10622535;27;20547;-63
2022/03/18 05:40:46;;;;;;;12.23;4.25;;;;;;;3.94;95.17;103950.31;10631103;27;20062;-63
2022/03/18 05:46:08;;;;;;;18.13;4.45;;;;;;;3.71;95.49;103950.91;10626650;27;20050;-63
2022/03/18 05:51:30;;;;;;;13.82;4.57;;;;;;;3.78;96.23;103947.53;10643731;27;20670;-63
2022/03/18 05:56:53;;;;;;;11.27;3.83;;;;;;;4.01;95.92;103949.56;10645155;27;20070;-63
2022/03/18 06:02:14;;;;;;;15.27;4.38;;;;;;;3.78;96.05;103938.09;10651102;27;20050;-63
2022/03/18 06:07:38;;;;;;;16.35;4.63;;;;;;;3.80;97.54;103937.25;10639796;27;20104;-63
2022/03/18 06:13:00;;;;;;;16.27;4.57;;;;;;;3.74;97.39;103941.47;10650140;27;20123;-63
2022/03/18 06:18:21;;;;;;;16.80;4.05;;;;;;;3.80;96.42;103946.69;10624665;27;20053;-63
2022/03/18 06:23:43;;;;;;;12.90;4.30;;;;;;;3.87;97.33;103953.69;10630387;27;20058;-63
2022/03/18 06:29:05;;;;;;;14.82;4.50;;;;;;;3.97;97.59;103965.84;10656909;27;20053;-62
2022/03/18 06:34:27;;;;;;;16.75;5.00;;;;;;;4.07;97.22;103978.88;10636978;27;20035;-62
2022/03/18 06:39:49;;;;;;;10.90;4.68;;;;;;;4.18;96.17;103981.59;10658524;27;20046;-63
2022/03/18 06:45:11;;;;;;;10.73;4.65;;;;;;;4.34;96.13;103986.94;10609637;27;20058;-63
2022/03/18 06:50:33;;;;;;;17.13;5.30;;;;;;;4.41;94.96;104006.84;10622356;27;20046;-63
2022/03/18 06:55:54;;;;;;;16.42;4.55;;;;;;;4.45;94.54;104010.31;10605931;27;20057;-63
2022/03/18 07:01:16;;;;;;;13.32;4.45;;;;;;;4.63;93.30;104013.13;10617444;27;20151;-63
2022/03/18 07:06:38;;;;;;;11.65;4.35;;;;;;;4.68;94.23;104008.84;10606919;27;20047;-63
2022/03/18 07:12:00;;;;;;;20.52;4.70;;;;;;;4.72;95.31;104015.78;10653204;27;20046;-63
2022/03/18 07:23:06;;;;;;;18.02;5.20;;;;;;;5.09;91.41;104027.38;10633298;27;20054;-63
2022/03/18 07:28:27;;;;;;;17.83;5.43;;;;;;;5.27;92.37;104043.03;10639227;27;20050;-63
2022/03/18 07:33:51;;;;;;;13.80;4.65;;;;;;;5.28;92.62;104055.09;10640402;27;20082;-63
2022/03/18 07:39:13;;;;;;;24.45;5.60;;;;;;;5.56;89.56;104062.22;10627986;27;20062;-63
2022/03/18 07:44:36;;;;;;;19.55;5.05;;;;;;;5.84;88.70;104084.88;10625687;27;20046;-63
2022/03/18 07:49:57;;;;;;;16.80;4.70;;;;;;;6.06;87.68;104097.13;10631348;27;20042;-63
2022/03/18 07:55:21;;;;;;;25.02;5.70;;;;;;;6.10;86.94;104104.06;10624856;27;20057;-63
2022/03/18 08:00:43;;;;;;;13.57;4.70;;;;;;;6.19;87.08;104104.13;10626891;27;20058;-63
2022/03/18 08:06:05;;;;;;;12.50;5.07;;;;;;;6.31;86.33;104114.53;10643393;27;20051;-63
2022/03/18 08:11:27;;;;;;;13.95;5.10;;;;;;;6.44;86.15;104117.22;10621065;27;20398;-63
2022/03/18 08:16:49;;;;;;;18.90;5.35;;;;;;;6.50;86.89;104137.09;10620034;27;20050;-63
2022/03/18 08:22:10;;;;;;;25.67;5.40;;;;;;;6.65;87.06;104134.59;10631230;27;20124;-65
2022/03/18 08:27:32;;;;;;;12.80;5.10;;;;;;;6.79;85.35;104152.78;10614947;27;20077;-65
2022/03/18 08:32:54;;;;;;;13.93;5.07;;;;;;;6.93;84.56;104156.31;10615685;27;20042;-65
2022/03/18 08:38:16;;;;;;;10.82;5.05;;;;;;;7.11;83.47;104161.56;10668530;27;20085;-62
2022/03/18 08:43:37;;;;;;;14.02;5.65;;;;;;;7.12;85.26;104168.47;10643678;27;20043;-63
2022/03/18 08:48:59;;;;;;;15.70;5.75;;;;;;;7.43;82.19;104175.44;10645577;27;20129;-63
2022/03/18 08:54:21;;;;;;;16.42;6.65;;;;;;;7.66;82.74;104176.38;10634060;27;20049;-62
2022/03/18 08:59:43;;;;;;;14.95;6.47;;;;;;;7.76;81.94;104188.47;10642395;27;20143;-65
2022/03/18 09:05:07;;;;;;;15.00;6.65;;;;;;;7.97;81.01;104196.28;10617669;27;20202;-64
2022/03/18 09:10:29;;;;;;;21.80;8.50;;;;;;;8.15;82.24;104211.88;10615293;27;20042;-62
2022/03/18 09:15:51;;;;;;;25.73;8.20;;;;;;;8.25;82.90;104205.81;10632684;27;20042;-64
2022/03/18 09:21:18;;;;;;;20.35;7.93;;;;;;;8.43;83.85;104214.44;10622081;27;20044;-63
2022/03/18 09:26:39;;;;;;;22.63;7.50;;;;;;;8.59;83.01;104220.50;10616557;27;20516;-63
2022/03/18 09:32:05;;;;;;;17.83;8.00;;;;;;;8.61;83.58;104220.47;10600432;28;20051;-63
2022/03/18 09:37:27;;;;;;;19.83;8.95;;;;;;;8.64;86.69;104223.06;10623073;27;20542;-63
2022/03/18 09:43:05;;;;;;;20.50;9.23;;;;;;;8.70;85.18;104236.06;10611281;27;20479;-63
2022/03/18 09:48:27;;;;;;;25.42;9.70;;;;;;;8.73;87.05;104236.03;10597418;27;20138;-63
2022/03/18 09:53:48;;;;;;;27.35;10.35;;;;;;;8.90;85.94;104234.25;10604509;27;20065;-64
2022/03/18 09:59:11;;;;;;;24.15;9.43;;;;;;;8.95;86.82;104234.28;10598471;27;20053;-63
2022/03/18 10:04:50;;;;;;;18.83;9.02;;;;;;;9.17;85.11;104239.34;10606708;27;20057;-63
2022/03/18 10:10:16;;;;;;;29.88;10.25;;;;;;;9.17;86.66;104238.50;10640817;27;20043;-62
2022/03/18 10:15:37;;;;;;;18.27;8.60;;;;;;;9.13;87.48;104242.88;10594612;27;20035;-64
2022/03/18 10:21:08;;;;;;;25.13;8.90;;;;;;;9.44;85.20;104239.25;10570059;28;20403;-63
2022/03/18 10:26:34;;;;;;;20.63;7.88;;;;;;;9.86;83.52;104234.63;10613760;27;20146;-63
2022/03/18 10:32:00;;;;;;;27.42;9.38;;;;;;;9.75;84.59;104240.78;10614902;27;20051;-66
2022/03/18 10:37:22;;;;;;;20.90;7.97;;;;;;;9.84;82.75;104236.34;10561575;27;20052;-63
2022/03/18 10:42:58;;;;;;;26.08;8.88;;;;;;;10.03;82.75;104234.53;10586355;27;20289;-63
2022/03/18 10:48:19;;;;;;;23.38;9.30;;;;;;;9.99;83.35;104240.63;10574450;27;20416;-64
2022/03/18 10:53:54;;;;;;;23.30;8.50;;;;;;;10.12;84.83;104247.47;10586484;27;20065;-63
2022/03/18 10:59:17;;;;;;;17.20;7.97;;;;;;;10.17;84.22;104256.16;10590122;27;20061;-64
2022/03/18 11:04:41;;;;;;;18.38;7.75;;;;;;;10.39;82.10;104260.28;10505629;27;20047;-64
2022/03/18 11:15:45;;;;;;;22.48;7.78;;;;;;;10.57;82.74;104247.91;10588932;27;20784;-64
2022/03/18 11:21:09;;;;;;;20.60;7.05;;;;;;;10.75;80.22;104258.19;10580957;27;20050;-64
2022/03/18 11:26:34;;;;;;;14.55;5.97;;;;;;;10.77;79.48;104262.47;10532043;27;20047;-65
2022/03/18 11:32:12;;;;;;;17.58;5.60;;;;;;;10.99;78.10;104258.78;10617776;27;20058;-64
2022/03/18 11:37:34;;;;;;;16.73;6.10;;;;;;;11.12;77.56;104265.56;10588314;27;20062;-64
2022/03/18 11:42:55;;;;;;;15.00;6.22;;;;;;;11.19;77.86;104264.63;10581906;27;20420;-64
2022/03/18 11:48:37;;;;;;;16.98;6.40;;;;;;;11.41;77.73;104263.47;10574703;27;20905;-64
2022/03/18 11:54:00;;;;;;;12.88;6.25;;;;;;;11.47;77.20;104267.72;10634454;27;20494;-64
2022/03/18 11:59:25;;;;;;;17.25;6.97;;;;;;;11.65;76.76;104263.13;10621422;27;20634;-64
2022/03/18 12:04:48;;;;;;;23.15;7.32;;;;;;;11.83;75.79;104266.38;10636689;27;20043;-64
2022/03/18 12:10:18;;;;;;;21.35;6.32;;;;;;;12.06;74.95;104266.03;10593444;27;20054;-64
2022/03/18 12:15:40;;;;;;;16.30;6.38;;;;;;;12.22;75.14;104259.66;10593951;27;20039;-63
2022/03/18 12:21:02;;;;;;;15.13;5.55;;;;;;;12.52;74.12;104268.69;10587204;27;20058;-64
2022/03/18 12:26:26;;;;;;;11.20;4.97;;;;;;;12.69;72.49;104263.16;10580154;27;20037;-64
2022/03/18 12:31:48;;;;;;;13.65;4.47;;;;;;;12.48;75.15;104254.84;10574611;27;20042;-64
2022/03/18 12:37:17;;;;;;;13.45;4.50;;;;;;;12.49;74.92;104255.69;10630011;27;20058;-64
2022/03/18 12:42:48;;;;;;;18.35;5.32;;;;;;;12.47;76.85;104259.19;10622132;27;20044;-64
2022/03/18 12:48:13;;;;;;;13.20;5.38;;;;;;;12.53;75.02;104257.31;10600120;27;20047;-65
2022/03/18 12:53:35;;;;;;;19.70;5.83;;;;;;;12.74;75.35;104261.28;10593395;28;20488;-65
2022/03/18 12:58:57;;;;;;;14.40;4.82;;;;;;;12.78;75.89;104269.09;10596243;27;20047;-65
2022/03/18 13:04:37;;;;;;;12.90;3.83;;;;;;;13.00;72.68;104267.81;10600069;28;20047;-65
2022/03/18 13:10:03;;;;;;;13.50;3.10;;;;;;;12.94;72.71;104267.94;10596433;27;20047;-65
2022/03/18 13:15:25;;;;;;;10.20;3.80;;;;;;;12.97;73.26;104277.47;10593268;27;20499;-66
2022/03/18 13:20:47;;;;;;;11.77;2.95;;;;;;;13.01;71.07;104269.53;10597863;27;20044;-66
2022/03/18 13:26:13;;;;;;;10.30;2.67;;;;;;;13.16;68.37;104263.97;10578157;27;20085;-65
2022/03/18 13:37:17;;;;;;;14.82;2.80;;;;;;;13.09;70.51;104251.91;10607495;27;20051;-67
2022/03/18 13:42:39;;;;;;;9.00;2.33;;;;;;;13.05;70.32;104252.88;10607692;27;20384;-65
2022/03/18 13:48:07;;;;;;;7.68;2.78;;;;;;;13.20;70.78;104249.06;10606864;27;20049;-65
2022/03/18 13:53:30;;;;;;;13.50;2.60;;;;;;;12.93;70.73;104255.75;10649893;27;20042;-65
2022/03/18 13:58:51;;;;;;;9.77;1.90;;;;;;;12.91;67.74;104252.28;10625880;27;20058;-66
2022/03/18 14:04:13;;;;;;;12.23;2.00;;;;;;;12.89;70.20;104259.31;10585734;27;20050;-65
2022/03/18 14:09:36;;;;;;;10.75;2.10;;;;;;;12.97;68.16;104257.38;10603810;27;20365;-65
2022/03/18 14:15:08;;;;;;;5.78;1.30;;;;;;;12.99;68.57;104254.75;10578505;27;20038;-68
2022/03/18 14:20:32;;;;;;;8.10;2.22;;;;;;;13.03;68.24;104246.78;10612960;27;20065;-67
2022/03/18 14:25:55;;;;;;;10.50;2.08;;;;;;;13.04;68.03;104248.53;10577302;27;20471;-67
2022/03/18 14:31:17;;;;;;;10.05;2.15;;;;;;;12.83;68.82;104248.06;10586599;27;20415;-67
2022/03/18 14:36:38;;;;;;;7.85;2.03;;;;;;;12.97;68.47;104257.38;10576441;27;20622;-67
2022/03/18 14:42:00;;;;;;;11.65;2.03;;;;;;;13.16;68.71;104253.50;10596670;27;20048;-67
2022/03/18 14:47:22;;;;;;;11.65;2.50;;;;;;;13.32;68.59;104265.38;10567309;27;20388;-64
2022/03/18 14:52:44;;;;;;;14.48;2.88;;;;;;;13.63;66.65;104266.44;10606708;27;20420;-64
2022/03/18 14:58:05;;;;;;;10.25;2.58;;;;;;;13.60;68.24;104266.50;10590425;27;20050;-66
2022/03/18 15:03:27;;;;;;;10.02;2.80;;;;;;;13.80;70.24;104266.94;10569413;27;20051;-67
2022/03/18 15:08:49;;;;;;;12.00;2.72;;;;;;;13.73;66.81;104273.19;10552458;27;20059;-66
2022/03/18 15:14:10;;;;;;;13.20;2.60;;;;;;;14.36;68.17;104272.53;10558938;27;20383;-65
2022/03/18 15:19:32;;;;;;;11.55;2.80;;;;;;;14.41;66.63;104280.34;10577968;27;20656;-65
2022/03/18 15:24:54;;;;;;;14.82;2.60;;;;;;;13.83;68.40;104275.59;10577092;27;20693;-63
2022/03/18 15:30:16;;;;;;;15.25;2.33;;;;;;;14.53;64.38;104281.72;10586472;27;20583;-66
2022/03/18 15:35:38;;;;;;;10.00;2.20;;;;;;;15.19;64.83;104279.88;10575219;27;20043;-66
2022/03/18 15:41:00;;;;;;;12.82;2.67;;;;;;;14.88;64.13;104286.03;10569400;27;20050;-65
2022/03/18 15:46:22;;;;;;;9.30;2.30;;;;;;;15.15;64.10;104291.38;10594181;27;20545;-65
2022/03/18 15:51:44;;;;;;;12.25;2.13;;;;;;;14.80;65.09;104286.25;10564840;27;20051;-65
2022/03/18 15:57:16;;;;;;;14.77;2.33;;;;;;;15.14;63.45;104297.53;10576976;27;20044;-63
2022/03/18 16:02:37;;;;;;;12.48;2.60;;;;;;;14.66;65.65;104304.16;10579009;27;20430;-63
2022/03/18 16:08:00;;;;;;;13.25;2.58;;;;;;;14.48;65.87;104303.75;10586555;27;20130;-63
2022/03/18 16:13:22;;;;;;;16.30;2.58;;;;;;;14.19;67.71;104300.13;10584800;27;20051;-63
2022/03/18 16:18:46;;;;;;;16.63;2.80;;;;;;;14.02;69.93;104297.00;10574999;27;20043;-62
2022/03/18 16:24:07;;;;;;;;;;;;;;;14.41;68.52;104307.44;10576635;27;20044;-61
2022/03/18 16:29:29;;;;;;;;;;;;;;;14.27;68.70;104303.41;10569862;27;19920;-63
2022/03/18 16:34:52;;;;;;;;;;;;;;;14.06;69.66;104299.50;10579616;27;22001;-64
2022/03/18 16:40:14;;;;;;;;;;;;;;;13.87;69.94;104307.84;10561242;27;19919;-64
2022/03/18 16:49:23;;;;;;;;;;;;;;;13.56;71.58;104327.75;10554201;27;19919;-62
2022/03/18 16:51:18;;;;;;;;;;;;;;;13.27;72.54;104314.41;10632581;28;19923;-63
2022/03/18 16:56:39;;;;;;;;;;;;;;;13.03;72.98;104327.09;10572208;28;19950;-64
2022/03/18 17:02:01;;;;;;;;;;;;;;;12.87;73.92;104329.13;10584618;28;20395;-63
2022/03/18 17:07:23;;;;;;;;;;;;;;;12.66;74.88;104334.72;10580176;28;19925;-62
2022/03/18 17:12:45;;;;;;;;;;;;;;;12.37;75.22;104336.13;10583202;28;20006;-62
2022/03/18 17:18:07;;;;;;;;;;;;;;;12.35;77.61;104352.75;10586315;28;20011;-61
2022/03/18 17:23:28;;;;;;;;;;;;;;;12.16;79.38;104357.38;10576998;28;19930;-61
2022/03/18 17:28:52;;;;;;;;;;;;;;;11.95;79.48;104356.81;10593148;28;20015;-60
2022/03/18 17:34:16;;;;;;;;;;;;;;;11.82;80.45;104377.06;10588305;28;20368;-62
2022/03/18 17:39:38;;;;;;;;;;;;;;;11.73;81.53;104376.31;10578875;28;20021;-62
2022/03/18 17:45:00;;;;;;;;;;;;;;;11.61;81.97;104379.06;10592727;28;19923;-65
2022/03/18 17:50:22;;;;;;;;;;;;;;;11.36;82.70;104377.56;10583135;28;20387;-65
2022/03/18 17:55:43;;;;;;;;;;;;;;;11.30;82.35;104384.63;10598934;27;19926;-62
2022/03/18 18:01:08;;;;;;;;;;;;;;;11.28;83.60;104399.47;10603969;27;19919;-62
2022/03/18 18:06:30;;;;;;;;;;;;;;;11.05;83.57;104399.69;10643401;27;20307;-62
2022/03/18 18:11:54;;;;;;;;;;;;;;;10.95;84.55;104408.47;10646049;27;19919;-62
2022/03/18 18:17:15;;;;;;;;;;;;;;;10.85;85.09;104413.78;10620746;27;19923;-61
2022/03/18 18:22:37;;;;;;;;;;;;;;;10.80;85.02;104424.25;10600456;27;19919;-62
2022/03/18 18:28:00;;;;;;;;;;;;;;;10.73;84.90;104429.53;10605867;27;19923;-62
2022/03/18 18:33:22;;;;;;;;;;;;;;;10.61;84.33;104433.13;10580540;27;20387;-62
2022/03/18 18:38:44;;;;;;;;;;;;;;;10.51;84.32;104440.16;10592610;27;19919;-62
2022/03/18 18:44:11;;;;;;;;;;;;;;;10.42;85.07;104441.06;10596669;27;19965;-62
2022/03/18 18:49:32;;;;;;;;;;;;;;;10.36;84.82;104445.47;10592185;27;19919;-62
2022/03/18 18:55:00;;;;;;;;;;;;;;;10.29;84.52;104446.38;10610572;27;20435;-62
2022/03/18 19:00:22;;;;;;;;;;;;;;;10.23;84.39;104446.41;10587082;27;20387;-62
2022/03/18 19:05:44;;;;;;;;;;;;;;;10.15;84.37;104456.03;10595546;27;19923;-61
2022/03/18 19:11:05;;;;;;;;;;;;;;;10.07;85.06;104452.56;10584277;27;19923;-62
2022/03/18 19:16:27;;;;;;;22.35;4.45;;;;;;;9.99;85.02;104454.34;10589446;27;19942;-61
2022/03/18 19:21:49;;;;;;;24.98;4.07;;;;;;;9.90;85.16;104441.31;10592962;27;20051;-60
2022/03/18 19:27:11;;;;;;;24.33;4.57;;;;;;;9.87;85.44;104444.81;10581331;27;20100;-61
2022/03/18 19:32:35;;;;;;;26.17;4.47;;;;;;;9.82;85.15;104451.75;10587696;27;20058;-62
2022/03/18 19:37:58;;;;;;;25.27;4.10;;;;;;;9.80;86.00;104470.91;10600676;27;20038;-61
2022/03/18 19:43:21;;;;;;;23.85;4.07;;;;;;;9.74;86.10;104460.50;10620662;27;20574;-62
2022/03/18 19:48:42;;;;;;;32.13;4.80;;;;;;;9.70;85.81;104477.00;10570844;27;20539;-62
2022/03/18 19:54:04;;;;;;;29.83;4.38;;;;;;;9.64;86.54;104474.41;10600288;27;20040;-61
2022/03/18 20:05:08;;;;;;;22.27;4.15;;;;;;;9.52;85.94;104491.81;10582195;27;20047;-61
2022/03/18 20:10:30;;;;;;;23.40;4.25;;;;;;;9.47;85.41;104493.56;10570632;27;20726;-61
2022/03/18 20:15:54;;;;;;;22.67;4.43;;;;;;;9.37;85.17;104492.69;10578668;27;20039;-61
2022/03/18 20:21:15;;;;;;;21.02;4.70;;;;;;;9.28;85.24;104495.31;10575251;27;20089;-61
2022/03/18 20:26:38;;;;;;;16.02;3.80;;;;;;;9.28;84.89;104500.53;10575528;27;20050;-61
2022/03/18 20:32:02;;;;;;;19.35;4.32;;;;;;;9.21;83.40;104501.38;10581398;27;20047;-61
2022/03/18 20:37:24;;;;;;;15.60;3.53;;;;;;;9.15;81.86;104514.41;10565351;27;20050;-61
2022/03/18 20:42:47;;;;;;;17.50;3.20;;;;;;;9.12;81.88;104511.81;10575150;27;20054;-61
2022/03/18 20:48:09;;;;;;;17.75;3.72;;;;;;;9.10;80.48;104502.25;10609309;27;20047;-63
2022/03/18 20:53:33;;;;;;;17.23;3.70;;;;;;;9.09;80.63;104505.75;10587639;28;20051;-62
2022/03/18 20:58:54;;;;;;;17.67;4.15;;;;;;;9.06;79.50;104506.59;10581670;28;20047;-61
2022/03/18 21:04:16;;;;;;;12.65;3.78;;;;;;;9.05;79.57;104525.66;10595144;28;20048;-61
2022/03/18 21:09:38;;;;;;;16.52;3.92;;;;;;;9.00;77.75;104530.03;10575520;28;20054;-61
2022/03/18 21:15:00;;;;;;;14.02;3.63;;;;;;;8.97;79.38;104522.22;10568502;28;20054;-62
2022/03/18 21:20:21;;;;;;;13.50;3.15;;;;;;;8.84;76.99;104523.06;10558653;28;20089;-62
2022/03/18 21:31:23;;;;;;;9.40;3.10;;;;;;;8.76;77.69;104527.38;10582979;27;20047;-62
2022/03/18 21:36:46;;;;;;;15.60;3.15;;;;;;;8.73;78.12;104526.50;10573276;27;20396;-61
2022/03/18 21:42:10;;;;;;;17.48;3.35;;;;;;;8.69;76.99;104535.16;10581284;27;20040;-61
2022/03/18 21:47:32;;;;;;;11.68;3.05;;;;;;;8.70;77.66;104529.97;10579834;27;20051;-61
2022/03/18 21:52:53;;;;;;;15.88;3.20;;;;;;;8.73;79.25;104532.56;10585774;27;20054;-61
2022/03/18 21:58:15;;;;;;;12.98;3.17;;;;;;;8.71;78.78;104536.91;10592354;27;20369;-61
2022/03/18 22:03:37;;;;;;;16.63;2.92;;;;;;;8.76;79.03;104527.38;10592792;27;20055;-62
2022/03/18 22:08:58;;;;;;;11.70;2.70;;;;;;;8.77;79.53;104528.25;10586133;27;20575;-61
2022/03/18 22:14:20;;;;;;;13.93;3.15;;;;;;;8.67;77.74;104527.34;10577259;27;20052;-61
2022/03/18 22:19:44;;;;;;;11.52;2.80;;;;;;;8.69;78.31;104520.44;10605053;27;20077;-63
2022/03/18 22:25:07;;;;;;;12.55;2.92;;;;;;;8.67;79.09;104527.34;10608239;27;20039;-61
2022/03/18 22:30:29;;;;;;;11.85;2.90;;;;;;;8.62;79.34;104517.81;10565846;27;20519;-61
2022/03/18 22:35:51;;;;;;;12.50;2.92;;;;;;;8.60;80.40;104512.59;10603259;27;20156;-62
2022/03/18 22:41:13;;;;;;;19.70;3.60;;;;;;;8.55;80.14;104515.19;10605242;27;20091;-62
2022/03/18 22:46:34;;;;;;;13.88;3.15;;;;;;;8.51;80.22;104522.13;10605771;27;20054;-62
2022/03/18 22:51:56;;;;;;;17.08;3.35;;;;;;;8.48;80.27;104510.81;10609461;27;20050;-62
2022/03/18 22:57:23;;;;;;;15.43;3.35;;;;;;;8.44;80.63;104509.09;10634939;27;20093;-61
2022/03/18 23:02:45;;;;;;;13.90;3.28;;;;;;;8.41;80.80;104512.53;10557169;28;20387;-62
2022/03/18 23:08:07;;;;;;;13.25;3.08;;;;;;;8.37;81.07;104507.34;10602565;27;20657;-61
2022/03/18 23:13:29;;;;;;;19.25;3.42;;;;;;;8.37;81.48;104509.94;10605215;27;20054;-62
2022/03/18 23:18:51;;;;;;;15.85;3.45;;;;;;;8.33;81.42;104513.38;10567792;28;20048;-61
2022/03/18 23:24:13;;;;;;;11.43;3.30;;;;;;;8.29;81.18;104509.06;10576705;27;20047;-62
2022/03/18 23:29:35;;;;;;;16.63;3.72;;;;;;;8.28;82.70;104523.75;10591415;27;20058;-62
2022/03/18 23:34:56;;;;;;;15.27;3.75;;;;;;;8.19;81.72;104525.44;10656449;27;20410;-62
2022/03/18 23:40:18;;;;;;;8.57;3.38;;;;;;;8.15;82.06;104523.69;10623657;27;20035;-62
2022/03/18 23:45:39;;;;;;;15.57;4.13;;;;;;;8.11;82.09;104527.97;10605549;27;20043;-62
2022/03/18 23:51:02;;;;;;;15.80;3.80;;;;;;;8.08;82.35;104532.31;10595112;27;20062;-62
2022/03/18 23:56:23;;;;;;;12.38;3.35;;;;;;;8.08;82.87;104532.31;10601872;27;20518;-62
